シンガポール/チャンギ の空港の天気 - METARとTAF

シンガポール・チャンギ国際空港 ( WSSS / SIN ) - シンガポール Changi
飛行場実況気象(Metar)
観測時間04/22 00:30 SGT (04/21 16:30 UTC)
風向・風速南 2m/s
視程10km以上
天気現象
少しの雲 雲底高度 490m
全天の4割程度の雲 雲底高度 4880m
全天の8割程度の雲 雲底高度 9140m
気温29℃
湿度84%
気圧1008hPa
METARWSSS 211630Z 17004KT 120V230 9999 FEW016 SCT160 BKN300 29/26 Q1008 NOSIG
過去の天気等 Google飛行場航空写真 Wunderground天気予報

過去48時間のMETAR

飛行場予報(TAF)
発表時間: 4/21 19:00 SGT (4/21 11:00 UTC)
予報対象時間: 21日20時 SGT ~ 23日2時 SGT
風向・風速南南東 3m/s
視程10km以上
少しの雲 雲底高度 460m
全天の4割程度の雲 雲底高度 610m
22日11時 SGT ~ 22日15時 SGT に一時的に
視程3000m
天気現象雷雨
少しの積乱雲 雲底高度 370m
全天の8割程度の雲 雲底高度 460m
TAF WSSS 211100Z 2112/2218 15006KT 9999 FEW015 SCT020
TEMPO 2203/2207 3000 TSRA FEW012CB BKN015